sensor_id;sensor_type;location;lat;lon;timestamp;temperature;humidity
20450;DHT22;10384;51.940;8.432;2023-06-24T00:01:14;15.20;99.90
20450;DHT22;10384;51.940;8.432;2023-06-24T00:03:40;15.20;99.90
20450;DHT22;10384;51.940;8.432;2023-06-24T00:06:06;15.10;99.90
20450;DHT22;10384;51.940;8.432;2023-06-24T00:08:31;15.10;99.90
20450;DHT22;10384;51.940;8.432;2023-06-24T00:11:00;15.20;99.90
20450;DHT22;10384;51.940;8.432;2023-06-24T00:13:26;15.00;99.90
20450;DHT22;10384;51.940;8.432;2023-06-24T00:15:51;14.90;99.90
20450;DHT22;10384;51.940;8.432;2023-06-24T00:18:17;14.90;99.90
20450;DHT22;10384;51.940;8.432;2023-06-24T00:20:43;14.80;99.90
20450;DHT22;10384;51.940;8.432;2023-06-24T00:23:08;14.80;99.90
20450;DHT22;10384;51.940;8.432;2023-06-24T00:25:34;15.00;99.90
20450;DHT22;10384;51.940;8.432;2023-06-24T00:28:00;14.80;99.90
20450;DHT22;10384;51.940;8.432;2023-06-24T00:30:26;14.70;99.90
20450;DHT22;10384;51.940;8.432;2023-06-24T00:32:52;14.70;99.90
20450;DHT22;10384;51.940;8.432;2023-06-24T00:35:18;14.80;99.90
20450;DHT22;10384;51.940;8.432;2023-06-24T00:37:43;14.80;99.90
20450;DHT22;10384;51.940;8.432;2023-06-24T00:40:10;14.70;99.90
20450;DHT22;10384;51.940;8.432;2023-06-24T00:42:37;14.70;99.90
20450;DHT22;10384;51.940;8.432;2023-06-24T00:45:03;14.70;99.90
20450;DHT22;10384;51.940;8.432;2023-06-24T00:47:31;14.60;99.90
20450;DHT22;10384;51.940;8.432;2023-06-24T00:49:57;14.60;99.90
20450;DHT22;10384;51.940;8.432;2023-06-24T00:52:23;14.60;99.90
20450;DHT22;10384;51.940;8.432;2023-06-24T00:54:49;14.60;99.90
20450;DHT22;10384;51.940;8.432;2023-06-24T00:57:15;14.70;99.90
20450;DHT22;10384;51.940;8.432;2023-06-24T00:59:44;14.70;99.90
20450;DHT22;10384;51.940;8.432;2023-06-24T01:02:10;14.60;99.90
20450;DHT22;10384;51.940;8.432;2023-06-24T01:04:37;14.60;99.90
20450;DHT22;10384;51.940;8.432;2023-06-24T01:07:04;14.30;99.90
20450;DHT22;10384;51.940;8.432;2023-06-24T01:09:30;14.40;99.90
20450;DHT22;10384;51.940;8.432;2023-06-24T01:11:56;14.40;99.90
20450;DHT22;10384;51.940;8.432;2023-06-24T01:14:22;14.50;99.90
20450;DHT22;10384;51.940;8.432;2023-06-24T01:16:56;14.50;99.90
20450;DHT22;10384;51.940;8.432;2023-06-24T01:28:19;14.40;99.90
20450;DHT22;10384;51.940;8.432;2023-06-24T01:31:46;14.40;99.90
20450;DHT22;10384;51.940;8.432;2023-06-24T01:36:49;14.40;99.90
20450;DHT22;10384;51.940;8.432;2023-06-24T01:39:17;14.30;99.90
20450;DHT22;10384;51.940;8.432;2023-06-24T01:41:49;14.40;99.90
20450;DHT22;10384;51.940;8.432;2023-06-24T01:44:17;14.40;99.90
20450;DHT22;10384;51.940;8.432;2023-06-24T01:46:46;14.30;99.90
20450;DHT22;10384;51.940;8.432;2023-06-24T01:49:16;14.20;99.90
20450;DHT22;10384;51.940;8.432;2023-06-24T01:51:45;14.40;99.90
20450;DHT22;10384;51.940;8.432;2023-06-24T01:54:15;14.30;99.90
20450;DHT22;10384;51.940;8.432;2023-06-24T01:56:45;14.20;99.90
20450;DHT22;10384;51.940;8.432;2023-06-24T01:59:13;14.20;99.90
20450;DHT22;10384;51.940;8.432;2023-06-24T02:01:42;14.20;99.90
20450;DHT22;10384;51.940;8.432;2023-06-24T02:04:08;14.20;99.90
20450;DHT22;10384;51.940;8.432;2023-06-24T02:06:36;14.40;99.90
20450;DHT22;10384;51.940;8.432;2023-06-24T02:09:04;14.20;99.90
20450;DHT22;10384;51.940;8.432;2023-06-24T02:11:31;14.10;99.90
20450;DHT22;10384;51.940;8.432;2023-06-24T02:13:59;14.10;99.90
20450;DHT22;10384;51.940;8.432;2023-06-24T02:16:27;14.10;99.90
20450;DHT22;10384;51.940;8.432;2023-06-24T02:18:54;14.10;99.90
20450;DHT22;10384;51.940;8.432;2023-06-24T02:21:20;14.10;99.90
20450;DHT22;10384;51.940;8.432;2023-06-24T02:23:47;14.20;99.90
20450;DHT22;10384;51.940;8.432;2023-06-24T02:26:13;14.10;99.90
20450;DHT22;10384;51.940;8.432;2023-06-24T02:28:41;14.30;99.90
20450;DHT22;10384;51.940;8.432;2023-06-24T02:31:08;14.10;99.90
20450;DHT22;10384;51.940;8.432;2023-06-24T02:33:34;14.00;99.90
20450;DHT22;10384;51.940;8.432;2023-06-24T02:36:00;14.00;99.90
20450;DHT22;10384;51.940;8.432;2023-06-24T02:38:26;13.90;99.90
20450;DHT22;10384;51.940;8.432;2023-06-24T02:40:52;13.80;99.90
20450;DHT22;10384;51.940;8.432;2023-06-24T02:43:18;13.90;99.90
20450;DHT22;10384;51.940;8.432;2023-06-24T02:45:44;13.80;99.90
20450;DHT22;10384;51.940;8.432;2023-06-24T02:48:11;13.80;99.90
20450;DHT22;10384;51.940;8.432;2023-06-24T02:50:38;13.70;99.90
20450;DHT22;10384;51.940;8.432;2023-06-24T02:53:05;13.70;99.90
20450;DHT22;10384;51.940;8.432;2023-06-24T02:55:32;13.60;99.90
20450;DHT22;10384;51.940;8.432;2023-06-24T02:57:59;13.60;99.90
20450;DHT22;10384;51.940;8.432;2023-06-24T03:00:25;13.70;99.90
20450;DHT22;10384;51.940;8.432;2023-06-24T03:02:51;13.70;99.90
20450;DHT22;10384;51.940;8.432;2023-06-24T03:05:17;13.70;99.90
20450;DHT22;10384;51.940;8.432;2023-06-24T03:07:44;13.60;99.90
20450;DHT22;10384;51.940;8.432;2023-06-24T03:10:10;13.60;99.90
20450;DHT22;10384;51.940;8.432;2023-06-24T03:12:36;13.60;99.90
20450;DHT22;10384;51.940;8.432;2023-06-24T03:15:02;13.60;99.90
20450;DHT22;10384;51.940;8.432;2023-06-24T03:17:27;13.60;99.90
20450;DHT22;10384;51.940;8.432;2023-06-24T03:19:53;13.70;99.90
20450;DHT22;10384;51.940;8.432;2023-06-24T03:22:19;13.50;99.90
20450;DHT22;10384;51.940;8.432;2023-06-24T03:24:45;13.50;99.90
20450;DHT22;10384;51.940;8.432;2023-06-24T03:27:10;13.60;99.90
20450;DHT22;10384;51.940;8.432;2023-06-24T03:29:36;13.50;99.90
20450;DHT22;10384;51.940;8.432;2023-06-24T03:32:02;13.60;99.90
20450;DHT22;10384;51.940;8.432;2023-06-24T03:34:27;13.50;99.90
20450;DHT22;10384;51.940;8.432;2023-06-24T03:36:53;13.60;99.90
20450;DHT22;10384;51.940;8.432;2023-06-24T03:39:20;13.70;99.90
20450;DHT22;10384;51.940;8.432;2023-06-24T03:41:46;13.60;99.90
20450;DHT22;10384;51.940;8.432;2023-06-24T03:44:12;13.70;99.90
20450;DHT22;10384;51.940;8.432;2023-06-24T03:46:38;13.60;99.90
20450;DHT22;10384;51.940;8.432;2023-06-24T03:49:04;13.60;99.90
20450;DHT22;10384;51.940;8.432;2023-06-24T03:51:29;13.60;99.90
20450;DHT22;10384;51.940;8.432;2023-06-24T03:53:55;13.60;99.90
20450;DHT22;10384;51.940;8.432;2023-06-24T03:56:21;13.70;99.90
20450;DHT22;10384;51.940;8.432;2023-06-24T03:58:46;13.60;99.90
20450;DHT22;10384;51.940;8.432;2023-06-24T04:01:12;13.60;99.90
20450;DHT22;10384;51.940;8.432;2023-06-24T04:03:37;13.80;99.90
20450;DHT22;10384;51.940;8.432;2023-06-24T04:06:03;13.80;99.90
20450;DHT22;10384;51.940;8.432;2023-06-24T04:08:28;13.70;99.90
20450;DHT22;10384;51.940;8.432;2023-06-24T04:10:57;13.80;99.90
20450;DHT22;10384;51.940;8.432;2023-06-24T04:13:28;13.80;99.90
20450;DHT22;10384;51.940;8.432;2023-06-24T04:15:53;13.90;99.90
20450;DHT22;10384;51.940;8.432;2023-06-24T04:18:19;13.90;99.90
20450;DHT22;10384;51.940;8.432;2023-06-24T04:20:45;13.90;99.90
20450;DHT22;10384;51.940;8.432;2023-06-24T04:23:12;14.00;99.90
20450;DHT22;10384;51.940;8.432;2023-06-24T04:25:39;14.10;99.90
20450;DHT22;10384;51.940;8.432;2023-06-24T04:28:05;14.10;99.90
20450;DHT22;10384;51.940;8.432;2023-06-24T04:30:31;14.30;99.90
20450;DHT22;10384;51.940;8.432;2023-06-24T04:32:57;14.20;99.90
20450;DHT22;10384;51.940;8.432;2023-06-24T04:35:23;14.20;99.90
20450;DHT22;10384;51.940;8.432;2023-06-24T04:37:49;14.30;99.90
20450;DHT22;10384;51.940;8.432;2023-06-24T04:40:16;14.30;99.90
20450;DHT22;10384;51.940;8.432;2023-06-24T04:42:42;14.40;99.90
20450;DHT22;10384;51.940;8.432;2023-06-24T04:45:08;14.30;99.90
20450;DHT22;10384;51.940;8.432;2023-06-24T04:47:34;14.40;99.90
20450;DHT22;10384;51.940;8.432;2023-06-24T04:49:59;14.60;99.90
20450;DHT22;10384;51.940;8.432;2023-06-24T04:52:25;14.60;99.90
20450;DHT22;10384;51.940;8.432;2023-06-24T04:54:50;14.60;99.90
20450;DHT22;10384;51.940;8.432;2023-06-24T04:57:30;14.70;99.90
20450;DHT22;10384;51.940;8.432;2023-06-24T04:59:57;14.70;99.90
20450;DHT22;10384;51.940;8.432;2023-06-24T05:02:22;14.90;99.90
20450;DHT22;10384;51.940;8.432;2023-06-24T05:04:49;14.90;99.90
20450;DHT22;10384;51.940;8.432;2023-06-24T05:07:15;15.10;99.90
20450;DHT22;10384;51.940;8.432;2023-06-24T05:09:40;15.20;99.90
20450;DHT22;10384;51.940;8.432;2023-06-24T05:12:07;15.10;99.90
20450;DHT22;10384;51.940;8.432;2023-06-24T05:14:36;15.10;99.90
20450;DHT22;10384;51.940;8.432;2023-06-24T05:17:03;15.30;99.90
20450;DHT22;10384;51.940;8.432;2023-06-24T05:19:28;15.30;99.90
20450;DHT22;10384;51.940;8.432;2023-06-24T05:21:54;15.40;99.90
20450;DHT22;10384;51.940;8.432;2023-06-24T05:24:20;15.50;99.90
20450;DHT22;10384;51.940;8.432;2023-06-24T05:26:50;15.60;99.90
20450;DHT22;10384;51.940;8.432;2023-06-24T05:29:16;15.60;99.90
20450;DHT22;10384;51.940;8.432;2023-06-24T05:31:42;15.70;99.90
20450;DHT22;10384;51.940;8.432;2023-06-24T05:34:08;15.80;99.90
20450;DHT22;10384;51.940;8.432;2023-06-24T05:36:34;15.90;99.90
20450;DHT22;10384;51.940;8.432;2023-06-24T05:39:00;15.80;99.90
20450;DHT22;10384;51.940;8.432;2023-06-24T05:41:26;16.10;99.90
20450;DHT22;10384;51.940;8.432;2023-06-24T05:44:06;16.20;99.90
20450;DHT22;10384;51.940;8.432;2023-06-24T05:51:27;16.20;99.90
20450;DHT22;10384;51.940;8.432;2023-06-24T05:53:52;16.30;99.90
20450;DHT22;10384;51.940;8.432;2023-06-24T05:56:19;16.40;99.90
20450;DHT22;10384;51.940;8.432;2023-06-24T05:58:44;16.50;99.90
